Time;durP1;ratioP1;P1;durP2;ratioP2;P2;SDS_P1;SDS_P2;PMS_P1;PMS_P2;Temp;Humidity;BMP_temperature;BMP_pressure;BME280_temperature;BME280_humidity;BME280_pressure;Samples;Min_cycle;Max_cycle;Signal;HPM_P1;HPM_P2
2021/12/07 00:01:22;;;;;;;54.00;28.88;;;26.20;99.90;;;;;;5054659;28;20037;-64
2021/12/07 00:03:49;;;;;;;55.28;31.30;;;26.30;99.90;;;;;;5062221;28;20185;-64
2021/12/07 00:06:16;;;;;;;48.40;27.73;;;26.20;99.90;;;;;;5058773;28;20025;-63
2021/12/07 00:08:43;;;;;;;37.85;24.73;;;26.30;99.90;;;;;;5056351;28;20036;-64
2021/12/07 00:11:11;;;;;;;57.30;28.35;;;26.30;99.90;;;;;;5055067;28;20028;-63
2021/12/07 00:13:39;;;;;;;39.63;25.67;;;26.30;99.90;;;;;;5054490;28;20116;-64
2021/12/07 00:16:11;;;;;;;50.90;28.55;;;26.30;99.90;;;;;;5053420;28;20036;-63
2021/12/07 00:18:38;;;;;;;58.63;27.17;;;26.30;99.90;;;;;;5053753;28;20035;-63
2021/12/07 00:21:07;;;;;;;48.22;28.20;;;26.30;99.90;;;;;;5053649;28;20033;-65
2021/12/07 00:23:34;;;;;;;66.82;35.47;;;26.40;99.90;;;;;;5052962;28;20029;-63
2021/12/07 00:26:01;;;;;;;46.15;26.60;;;26.40;99.90;;;;;;5053396;28;20017;-63
2021/12/07 00:28:28;;;;;;;48.55;25.42;;;26.40;99.90;;;;;;5052385;28;20039;-63
2021/12/07 00:30:57;;;;;;;49.08;25.58;;;26.50;99.90;;;;;;5046283;28;20026;-63
2021/12/07 00:35:54;;;;;;;57.08;31.73;;;26.50;99.90;;;;;;5046122;28;20078;-62
2021/12/07 00:38:25;;;;;;;53.45;25.08;;;26.50;99.90;;;;;;5053271;28;20132;-62
2021/12/07 00:40:54;;;;;;;41.20;24.92;;;26.60;99.90;;;;;;5053311;28;20029;-63
2021/12/07 00:43:21;;;;;;;55.13;22.67;;;26.60;99.90;;;;;;5053262;28;20028;-62
2021/12/07 00:45:49;;;;;;;59.28;31.63;;;26.60;99.90;;;;;;5053867;28;20364;-63
2021/12/07 00:48:16;;;;;;;40.88;21.17;;;26.70;99.90;;;;;;5053408;28;20116;-62
2021/12/07 00:50:46;;;;;;;116.43;82.68;;;26.70;99.90;;;;;;5052860;28;20441;-62
2021/12/07 00:53:15;;;;;;;39.65;22.02;;;26.80;99.90;;;;;;5053071;28;20033;-65
2021/12/07 00:55:47;;;;;;;48.90;26.08;;;26.80;99.90;;;;;;5053323;28;20035;-63
2021/12/07 00:58:22;;;;;;;40.30;21.58;;;26.90;99.90;;;;;;5052945;28;20456;-62
2021/12/07 01:27:08;;;;;;;45.75;20.33;;;27.10;99.90;;;;;;5036546;28;20021;-65
2021/12/07 01:29:36;;;;;;;67.70;22.30;;;27.10;99.90;;;;;;5036474;28;20360;-65
2021/12/07 02:00:46;;;;;;;46.90;23.30;;;27.80;99.90;;;;;;5026512;28;20025;-64
2021/12/07 02:03:12;;;;;;;34.38;20.85;;;27.90;99.90;;;;;;5024037;28;20026;-65
2021/12/07 02:05:39;;;;;;;36.38;21.13;;;27.90;99.90;;;;;;5026301;28;20060;-65
2021/12/07 02:08:06;;;;;;;39.83;18.05;;;28.00;99.90;;;;;;5025223;28;20021;-65
2021/12/07 02:10:34;;;;;;;50.75;23.55;;;28.00;99.90;;;;;;5017812;28;20053;-66
2021/12/07 02:13:06;;;;;;;52.20;28.42;;;28.00;99.90;;;;;;5015453;28;20026;-67
2021/12/07 02:15:34;;;;;;;44.15;25.20;;;28.00;99.90;;;;;;5015685;28;20387;-66
2021/12/07 02:18:01;;;;;;;47.08;23.35;;;28.10;99.90;;;;;;5018390;28;20041;-64
2021/12/07 02:20:31;;;;;;;58.67;35.85;;;28.10;99.90;;;;;;5019638;28;20036;-65
2021/12/07 02:22:58;;;;;;;36.35;21.35;;;28.10;99.90;;;;;;5028105;28;20033;-64
2021/12/07 02:25:24;;;;;;;98.75;59.58;;;28.00;99.90;;;;;;5026512;28;20480;-64
2021/12/07 02:27:53;;;;;;;51.03;31.20;;;28.10;99.90;;;;;;5027649;28;20025;-66
2021/12/07 02:30:23;;;;;;;56.53;33.22;;;28.10;99.90;;;;;;5031487;28;20029;-65
2021/12/07 02:32:53;;;;;;;43.47;21.95;;;28.20;99.90;;;;;;5029220;28;20021;-64
2021/12/07 02:35:27;;;;;;;38.63;21.67;;;28.30;99.90;;;;;;5024187;28;20547;-64
2021/12/07 02:37:55;;;;;;;44.17;21.88;;;28.20;99.90;;;;;;5025516;28;20037;-64
2021/12/07 02:40:22;;;;;;;42.10;22.92;;;28.30;99.90;;;;;;5035519;28;20101;-64
2021/12/07 02:42:50;;;;;;;40.00;20.75;;;28.20;99.90;;;;;;5035122;28;20033;-64
2021/12/07 02:45:20;;;;;;;40.70;24.80;;;28.10;99.90;;;;;;5035312;28;20036;-65
2021/12/07 02:47:46;;;;;;;53.80;33.85;;;28.00;99.90;;;;;;5031266;28;20065;-65
2021/12/07 02:50:14;;;;;;;55.25;31.88;;;28.00;99.90;;;;;;5021334;28;20112;-65
2021/12/07 02:52:41;;;;;;;49.92;22.88;;;28.00;99.90;;;;;;5024135;28;20033;-64
2021/12/07 02:55:10;;;;;;;38.95;20.77;;;28.10;99.90;;;;;;5018268;28;20049;-64
2021/12/07 02:57:37;;;;;;;36.22;21.48;;;28.10;99.90;;;;;;5030099;28;20025;-65
2021/12/07 03:00:15;;;;;;;45.95;21.92;;;28.20;99.90;;;;;;5023540;28;20037;-64
2021/12/07 03:02:48;;;;;;;58.67;24.83;;;28.20;99.90;;;;;;5021954;28;20033;-64
2021/12/07 03:26:23;;;;;;;42.25;24.48;;;28.80;99.90;;;;;;5024072;28;20472;-63
2021/12/07 03:28:52;;;;;;;37.55;21.75;;;28.90;99.90;;;;;;5034140;28;20065;-64
2021/12/07 03:31:20;;;;;;;40.20;24.52;;;28.80;99.90;;;;;;5025760;28;20053;-66
2021/12/07 03:33:47;;;;;;;51.05;28.85;;;28.80;99.90;;;;;;5023675;28;20024;-65
2021/12/07 03:36:15;;;;;;;53.72;29.58;;;28.80;99.90;;;;;;5025574;28;20029;-64
2021/12/07 03:38:42;;;;;;;45.90;25.88;;;28.90;99.90;;;;;;5022101;28;20091;-64
2021/12/07 03:41:09;;;;;;;63.20;31.23;;;29.00;99.90;;;;;;5032766;28;20132;-66
2021/12/07 03:43:36;;;;;;;54.65;31.48;;;29.10;99.90;;;;;;5034545;28;20021;-66
2021/12/07 03:46:04;;;;;;;44.67;25.67;;;29.10;99.90;;;;;;5033496;28;20091;-65
2021/12/07 03:48:31;;;;;;;41.85;25.40;;;29.20;99.90;;;;;;5028869;28;20033;-64
2021/12/07 03:50:57;;;;;;;43.85;25.67;;;29.30;99.90;;;;;;5032732;28;20032;-65
2021/12/07 03:53:24;;;;;;;64.35;33.67;;;29.40;99.90;;;;;;5033094;28;20395;-64
2021/12/07 03:55:51;;;;;;;54.17;28.20;;;29.40;99.90;;;;;;5034008;28;20079;-65
2021/12/07 03:58:18;;;;;;;41.75;24.98;;;29.50;99.90;;;;;;5033672;28;20502;-66
2021/12/07 04:00:46;;;;;;;35.63;18.85;;;29.60;99.90;;;;;;5033863;28;20445;-67
2021/12/07 04:03:14;;;;;;;26.88;17.48;;;29.60;99.90;;;;;;5033518;28;20472;-69
2021/12/07 04:05:48;;;;;;;34.25;18.90;;;29.70;99.90;;;;;;5029990;28;20037;-69
2021/12/07 04:08:21;;;;;;;33.15;19.33;;;29.70;99.90;;;;;;5026532;28;20033;-68
2021/12/07 04:10:48;;;;;;;23.05;15.13;;;29.70;99.90;;;;;;5033401;28;20197;-67
2021/12/07 04:13:15;;;;;;;22.13;14.40;;;29.80;99.90;;;;;;5033575;28;20049;-66
2021/12/07 04:15:42;;;;;;;21.30;13.52;;;29.70;99.90;;;;;;5033573;28;20033;-66
2021/12/07 04:18:09;;;;;;;25.60;13.25;;;29.80;99.90;;;;;;5027302;28;20391;-67
2021/12/07 04:20:37;;;;;;;20.38;11.55;;;29.80;99.90;;;;;;5033920;28;20067;-66
2021/12/07 04:23:05;;;;;;;24.92;13.20;;;29.90;99.90;;;;;;5032106;28;20456;-65
2021/12/07 04:25:32;;;;;;;34.58;14.80;;;29.90;99.90;;;;;;5028804;28;20033;-66
2021/12/07 04:28:00;;;;;;;20.60;11.77;;;29.90;99.90;;;;;;5031631;28;20075;-65
2021/12/07 04:30:37;;;;;;;25.65;13.50;;;29.90;99.90;;;;;;5031590;28;20079;-65
2021/12/07 04:33:06;;;;;;;27.33;13.18;;;30.00;99.90;;;;;;5016958;28;20120;-65
2021/12/07 04:35:33;;;;;;;25.85;15.38;;;30.10;99.90;;;;;;5022230;28;20652;-65
2021/12/07 04:38:00;;;;;;;23.17;13.65;;;30.30;99.90;;;;;;5024034;28;20026;-64
2021/12/07 04:40:31;;;;;;;34.13;14.13;;;30.30;99.90;;;;;;5023144;28;20496;-65
2021/12/07 04:42:59;;;;;;;26.17;12.98;;;30.20;99.90;;;;;;5025675;28;20033;-65
2021/12/07 04:58:21;;;;;;;35.90;14.45;;;30.20;99.90;;;;;;5035041;28;20018;-63
2021/12/07 05:00:48;;;;;;;28.77;14.48;;;30.20;99.90;;;;;;5026547;28;20033;-64
2021/12/07 05:03:16;;;;;;;32.38;14.07;;;30.10;99.90;;;;;;5031215;28;20080;-65
2021/12/07 05:05:48;;;;;;;22.63;13.43;;;30.10;99.90;;;;;;5024336;28;20030;-65
2021/12/07 05:08:18;;;;;;;;;;;30.00;99.90;;;;;;5028527;28;20057;-66
2021/12/07 05:13:31;;;;;;;34.35;17.83;;;30.10;99.90;;;;;;5028084;28;20029;-65
2021/12/07 05:16:11;;;;;;;47.17;21.83;;;30.10;99.90;;;;;;5023683;28;20026;-64
2021/12/07 05:18:57;;;;;;;108.22;71.85;;;30.10;99.90;;;;;;5029693;28;20338;-65
2021/12/07 05:24:10;;;;;;;28.90;16.98;;;30.10;99.90;;;;;;5032596;28;20028;-66
2021/12/07 05:37:39;;;;;;;29.08;17.40;;;30.30;99.90;;;;;;5025759;28;20034;-66
2021/12/07 05:39:53;;;;;;;27.63;15.40;;;30.30;99.90;;;;;;5025243;28;20049;-66
2021/12/07 05:42:22;;;;;;;29.25;17.75;;;30.30;99.90;;;;;;5027865;28;20025;-64
2021/12/07 05:44:50;;;;;;;28.20;16.60;;;30.30;99.90;;;;;;5022898;28;20030;-65
2021/12/07 05:47:17;;;;;;;27.17;16.63;;;30.40;99.90;;;;;;5027662;28;20498;-62
2021/12/07 05:49:44;;;;;;;30.08;15.30;;;30.40;99.90;;;;;;5028619;28;20075;-64
2021/12/07 05:52:11;;;;;;;21.70;14.85;;;30.40;99.90;;;;;;5027570;28;20033;-64
2021/12/07 05:54:38;;;;;;;23.98;14.73;;;30.40;99.90;;;;;;5032767;28;21075;-65
2021/12/07 05:57:05;;;;;;;21.42;15.60;;;30.40;99.90;;;;;;5030087;28;20025;-62
2021/12/07 05:59:32;;;;;;;29.92;15.57;;;30.40;99.90;;;;;;5034522;28;20087;-63
2021/12/07 06:02:00;;;;;;;28.00;16.50;;;30.30;99.90;;;;;;5035779;28;20029;-65
2021/12/07 06:04:28;;;;;;;28.52;16.55;;;30.20;99.90;;;;;;5029270;28;20436;-64
2021/12/07 06:06:55;;;;;;;36.90;16.23;;;30.30;99.90;;;;;;5028084;28;20101;-63
2021/12/07 06:09:21;;;;;;;32.53;19.95;;;30.30;99.90;;;;;;5027682;28;20058;-65
2021/12/07 06:11:50;;;;;;;33.38;17.40;;;30.30;99.90;;;;;;5029388;28;20103;-65
2021/12/07 06:14:19;;;;;;;37.28;20.90;;;30.30;99.90;;;;;;5028798;28;20022;-65
2021/12/07 06:16:47;;;;;;;34.35;17.10;;;30.40;99.90;;;;;;5030014;28;20034;-64
2021/12/07 06:19:15;;;;;;;30.58;15.25;;;30.50;99.90;;;;;;5030057;28;20029;-66
2021/12/07 06:21:42;;;;;;;29.10;15.70;;;30.60;99.90;;;;;;5031239;28;20040;-65
2021/12/07 06:24:08;;;;;;;38.00;16.83;;;30.70;99.90;;;;;;5032208;28;20021;-65
2021/12/07 06:26:35;;;;;;;28.98;16.83;;;30.70;99.90;;;;;;5028596;28;20117;-66
2021/12/07 06:29:03;;;;;;;29.08;16.75;;;30.60;99.90;;;;;;5028046;28;20033;-68
2021/12/07 06:31:30;;;;;;;35.08;21.58;;;30.70;99.90;;;;;;5021766;28;20032;-64
2021/12/07 06:33:56;;;;;;;35.28;20.17;;;30.60;99.90;;;;;;5026883;28;20029;-66
2021/12/07 06:36:24;;;;;;;33.65;18.38;;;30.60;99.90;;;;;;5021341;28;20523;-67
2021/12/07 06:38:51;;;;;;;28.73;17.08;;;30.60;99.90;;;;;;5018226;28;20077;-66
2021/12/07 06:41:18;;;;;;;26.60;16.58;;;30.50;99.90;;;;;;5014923;28;20041;-66
2021/12/07 06:43:45;;;;;;;30.45;17.70;;;30.40;99.90;;;;;;5022218;28;20026;-65
2021/12/07 06:46:12;;;;;;;34.35;18.38;;;30.40;99.90;;;;;;5028837;28;20022;-66
2021/12/07 06:48:39;;;;;;;35.55;19.33;;;30.40;99.90;;;;;;5034597;28;20029;-65
2021/12/07 06:51:05;;;;;;;37.67;19.90;;;30.30;99.90;;;;;;5035280;28;20108;-67
2021/12/07 06:53:36;;;;;;;62.50;22.55;;;30.20;99.90;;;;;;5033848;28;20037;-67
2021/12/07 06:56:06;;;;;;;44.95;22.02;;;30.10;99.90;;;;;;5031131;28;20040;-70
2021/12/07 06:58:34;;;;;;;50.90;25.98;;;29.90;99.90;;;;;;5025595;28;20033;-66
2021/12/07 07:01:01;;;;;;;60.55;30.23;;;29.60;99.90;;;;;;5035336;28;20030;-67
2021/12/07 07:03:27;;;;;;;48.63;29.50;;;29.10;99.90;;;;;;5035932;28;20026;-67
2021/12/07 07:05:54;;;;;;;46.72;24.15;;;28.80;99.90;;;;;;5035669;28;20026;-68
2021/12/07 07:08:21;;;;;;;42.55;23.10;;;28.60;99.90;;;;;;5035184;28;20022;-67
2021/12/07 07:10:48;;;;;;;49.03;23.75;;;28.40;99.90;;;;;;5034984;28;20642;-67
2021/12/07 07:13:14;;;;;;;43.00;21.85;;;28.10;99.90;;;;;;5034968;28;20045;-67
2021/12/07 07:15:41;;;;;;;27.33;20.08;;;28.00;99.90;;;;;;5034902;28;20078;-66
2021/12/07 07:18:08;;;;;;;29.85;19.50;;;27.80;99.90;;;;;;5034592;28;20049;-66
2021/12/07 07:20:35;;;;;;;30.13;21.23;;;27.80;99.90;;;;;;5034639;28;20021;-66
2021/12/07 07:23:03;;;;;;;28.38;19.65;;;27.70;99.90;;;;;;5034376;28;20459;-65
2021/12/07 07:25:30;;;;;;;31.08;23.00;;;27.70;99.90;;;;;;5015279;28;20487;-66
2021/12/07 07:27:59;;;;;;;39.50;22.38;;;27.80;99.90;;;;;;5015746;28;20028;-66
2021/12/07 07:30:27;;;;;;;36.28;21.25;;;27.80;99.90;;;;;;5033553;28;20111;-66
2021/12/07 07:32:54;;;;;;;42.95;24.83;;;27.90;99.90;;;;;;5020995;28;20042;-67
2021/12/07 07:35:22;;;;;;;40.15;25.33;;;27.90;99.90;;;;;;5015342;28;20037;-66
2021/12/07 07:37:48;;;;;;;43.13;26.10;;;27.90;99.90;;;;;;5028528;28;20040;-65
2021/12/07 07:40:20;;;;;;;44.58;29.50;;;28.00;99.90;;;;;;5031482;28;20040;-67
2021/12/07 07:42:47;;;;;;;49.20;31.47;;;28.10;99.90;;;;;;5028083;28;20046;-64
2021/12/07 07:45:15;;;;;;;85.88;63.00;;;28.10;99.90;;;;;;5022817;28;20026;-64
2021/12/07 07:47:42;;;;;;;54.28;40.95;;;28.00;99.90;;;;;;5020943;28;20030;-64
2021/12/07 07:50:12;;;;;;;71.18;52.28;;;28.00;99.90;;;;;;5033582;28;20539;-64
2021/12/07 07:52:39;;;;;;;51.75;32.40;;;27.90;99.90;;;;;;5032786;28;20116;-64
2021/12/07 07:55:08;;;;;;;56.05;29.60;;;27.90;99.90;;;;;;5034087;28;20388;-64
2021/12/07 07:57:34;;;;;;;44.20;27.70;;;27.90;99.90;;;;;;5034062;28;20029;-65
2021/12/07 08:00:04;;;;;;;46.50;25.80;;;27.90;99.90;;;;;;5034053;28;20103;-64
2021/12/07 08:02:31;;;;;;;41.63;25.65;;;27.90;99.90;;;;;;5034339;28;20022;-65
2021/12/07 08:04:57;;;;;;;43.13;28.92;;;28.00;99.90;;;;;;5034394;28;20298;-65
2021/12/07 08:07:24;;;;;;;54.38;30.10;;;28.10;99.90;;;;;;5034301;28;20084;-65
2021/12/07 08:09:51;;;;;;;54.90;29.52;;;28.10;99.90;;;;;;5033587;28;20099;-65
2021/12/07 08:12:17;;;;;;;51.50;30.92;;;28.10;99.90;;;;;;5026144;28;20030;-65
2021/12/07 08:14:44;;;;;;;46.97;29.25;;;28.20;99.90;;;;;;5030433;28;20037;-65
2021/12/07 08:17:11;;;;;;;38.33;29.20;;;28.00;99.90;;;;;;5024636;28;20099;-67
2021/12/07 08:19:38;;;;;;;46.67;32.78;;;28.10;99.90;;;;;;5034323;28;20035;-64
2021/12/07 08:22:05;;;;;;;48.53;31.58;;;28.10;99.90;;;;;;5024227;28;20040;-64
2021/12/07 08:24:31;;;;;;;53.17;35.85;;;28.20;99.90;;;;;;5027452;28;20033;-63
2021/12/07 08:26:58;;;;;;;60.83;36.72;;;28.20;99.90;;;;;;5029081;28;20104;-62
2021/12/07 08:29:25;;;;;;;65.38;41.83;;;28.20;99.90;;;;;;5026450;28;20504;-65
2021/12/07 08:31:52;;;;;;;59.13;42.60;;;28.20;99.90;;;;;;5014824;28;20042;-65
2021/12/07 08:34:18;;;;;;;81.20;44.53;;;28.20;99.90;;;;;;5026312;28;20487;-65
2021/12/07 08:36:45;;;;;;;63.30;43.35;;;28.20;99.90;;;;;;5021878;28;20068;-64
2021/12/07 08:39:13;;;;;;;66.97;42.92;;;28.30;99.90;;;;;;5035737;28;20040;-66
2021/12/07 08:41:39;;;;;;;56.65;40.83;;;28.30;99.90;;;;;;5033059;28;20044;-64
2021/12/07 08:44:06;;;;;;;51.92;36.78;;;28.30;99.90;;;;;;5034668;28;20037;-64
2021/12/07 08:46:34;;;;;;;55.03;34.42;;;28.20;99.90;;;;;;5024153;28;20088;-66
2021/12/07 08:49:00;;;;;;;57.28;36.08;;;28.10;99.90;;;;;;5022051;28;20099;-65
2021/12/07 08:51:27;;;;;;;45.20;30.13;;;28.10;99.90;;;;;;5030172;28;20018;-65
2021/12/07 08:54:17;;;;;;;40.67;28.35;;;28.00;99.90;;;;;;5031201;28;20033;-66
2021/12/07 09:01:59;;;;;;;29.73;17.45;;;27.90;99.90;;;;;;5030265;28;20128;-65
2021/12/07 09:04:25;;;;;;;27.10;14.30;;;27.80;99.90;;;;;;5028453;28;20050;-64
2021/12/07 09:06:52;;;;;;;28.10;15.13;;;27.60;99.90;;;;;;5028453;28;20033;-65
2021/12/07 09:09:19;;;;;;;25.30;15.07;;;27.50;99.90;;;;;;5031392;28;20133;-65
2021/12/07 09:11:46;;;;;;;29.13;15.25;;;27.50;99.90;;;;;;5032315;28;20034;-65
2021/12/07 09:14:15;;;;;;;26.60;15.38;;;27.40;99.90;;;;;;5024069;28;20040;-65
2021/12/07 09:16:45;;;;;;;32.00;15.57;;;27.50;99.90;;;;;;5024606;28;20468;-65
2021/12/07 09:19:13;;;;;;;38.15;15.07;;;27.60;99.90;;;;;;5025125;28;20033;-65
2021/12/07 09:21:41;;;;;;;27.63;13.77;;;27.50;99.90;;;;;;5026430;28;20073;-65
2021/12/07 09:24:08;;;;;;;38.35;14.82;;;27.50;99.90;;;;;;5034660;28;20138;-64
2021/12/07 09:26:35;;;;;;;23.25;13.35;;;27.50;99.90;;;;;;5032912;28;20502;-65
2021/12/07 09:29:03;;;;;;;18.83;12.55;;;27.60;99.90;;;;;;5037088;28;20040;-64
2021/12/07 09:31:30;;;;;;;26.20;12.20;;;27.60;99.90;;;;;;5036261;28;20120;-64
2021/12/07 09:33:57;;;;;;;22.75;12.13;;;27.60;99.90;;;;;;5036084;28;20426;-63
2021/12/07 09:36:25;;;;;;;18.27;11.70;;;27.60;99.90;;;;;;5035366;28;20033;-64
2021/12/07 09:38:52;;;;;;;23.63;12.35;;;27.60;99.90;;;;;;5036594;28;20047;-64
2021/12/07 09:41:20;;;;;;;23.30;13.02;;;27.70;99.90;;;;;;5027331;28;20076;-64
2021/12/07 09:43:47;;;;;;;29.90;14.13;;;27.80;99.90;;;;;;5033239;28;20065;-64
2021/12/07 09:46:15;;;;;;;42.10;26.08;;;27.70;99.90;;;;;;5026784;28;20459;-64
2021/12/07 09:48:42;;;;;;;25.80;15.50;;;27.80;99.90;;;;;;5016932;28;20038;-64
2021/12/07 09:51:11;;;;;;;81.18;17.65;;;27.80;99.90;;;;;;5023471;28;20053;-64
2021/12/07 09:53:38;;;;;;;44.13;15.35;;;27.90;99.90;;;;;;5017188;28;20022;-64
2021/12/07 09:56:07;;;;;;;21.70;13.77;;;27.90;99.90;;;;;;5025530;28;20068;-65
2021/12/07 09:58:35;;;;;;;69.50;16.90;;;27.80;99.90;;;;;;5028140;28;20021;-64
2021/12/07 10:01:02;;;;;;;24.25;15.43;;;27.80;99.90;;;;;;5027862;28;20025;-65
2021/12/07 10:03:29;;;;;;;28.90;14.20;;;27.80;99.90;;;;;;5027624;28;20262;-65
2021/12/07 10:05:56;;;;;;;24.02;14.85;;;27.70;99.90;;;;;;5029051;28;20030;-65
2021/12/07 10:08:23;;;;;;;29.65;18.95;;;27.60;99.90;;;;;;5028663;28;20076;-65
2021/12/07 10:10:55;;;;;;;46.05;17.15;;;27.70;99.90;;;;;;5028352;28;20045;-64
2021/12/07 10:13:24;;;;;;;39.75;19.38;;;27.70;99.90;;;;;;5030439;28;20021;-66
2021/12/07 10:15:53;;;;;;;37.30;22.02;;;27.80;99.90;;;;;;5031665;28;20030;-65
2021/12/07 10:18:24;;;;;;;35.78;19.48;;;27.90;99.90;;;;;;5027054;28;20392;-65
2021/12/07 10:20:54;;;;;;;35.00;18.20;;;27.90;99.90;;;;;;5024853;28;20420;-65
2021/12/07 10:23:20;;;;;;;58.88;27.70;;;27.80;99.90;;;;;;5016963;28;20041;-64
2021/12/07 10:25:55;;;;;;;35.65;19.63;;;27.80;99.90;;;;;;5030160;28;20018;-64
2021/12/07 10:28:28;;;;;;;45.30;23.95;;;27.80;99.90;;;;;;5033416;28;20028;-66
2021/12/07 10:31:00;;;;;;;43.53;27.83;;;27.90;99.90;;;;;;5028035;28;20071;-65
2021/12/07 10:33:32;;;;;;;39.70;25.40;;;27.90;99.90;;;;;;5028855;28;20076;-65
2021/12/07 10:36:07;;;;;;;43.33;23.92;;;27.90;99.90;;;;;;5032174;28;20286;-66
2021/12/07 10:38:33;;;;;;;39.67;25.08;;;27.90;99.90;;;;;;5030872;28;20026;-64
2021/12/07 10:41:05;;;;;;;35.97;21.05;;;27.90;99.90;;;;;;5032063;28;20030;-65
2021/12/07 10:43:48;;;;;;;611.88;59.72;;;27.90;99.90;;;;;;5027078;28;20384;-64
2021/12/07 10:46:37;;;;;;;34.00;21.90;;;27.90;99.90;;;;;;5024041;28;20017;-65
2021/12/07 10:49:16;;;;;;;45.08;25.77;;;27.80;99.90;;;;;;5025655;28;20017;-64
2021/12/07 10:52:06;;;;;;;47.83;30.00;;;27.70;99.90;;;;;;5026202;28;20108;-64
2021/12/07 10:54:37;;;;;;;41.45;25.95;;;27.70;99.90;;;;;;5025450;28;20036;-64
2021/12/07 10:57:06;;;;;;;58.50;31.83;;;27.80;99.90;;;;;;5032122;28;20040;-65
2021/12/07 10:59:34;;;;;;;72.78;36.80;;;27.80;99.90;;;;;;5034760;28;20037;-64
2021/12/07 11:02:12;;;;;;;49.83;31.23;;;27.70;99.90;;;;;;5023976;28;20022;-63
2021/12/07 11:04:40;;;;;;;43.85;27.50;;;27.60;99.90;;;;;;5024093;28;20029;-65
2021/12/07 11:07:11;;;;;;;58.92;31.45;;;27.60;99.90;;;;;;5025770;28;20014;-65
2021/12/07 11:09:47;;;;;;;48.55;27.25;;;27.70;99.90;;;;;;5025108;28;20089;-64
2021/12/07 11:12:17;;;;;;;59.00;27.33;;;27.70;99.90;;;;;;5024909;28;20049;-64
2021/12/07 11:14:49;;;;;;;46.70;25.92;;;27.70;99.90;;;;;;5023684;28;20038;-64
2021/12/07 11:17:24;;;;;;;41.72;25.50;;;27.70;99.90;;;;;;5024208;28;20101;-64
2021/12/07 11:19:53;;;;;;;51.53;32.70;;;27.70;99.90;;;;;;5024667;28;20037;-65
2021/12/07 11:22:23;;;;;;;61.13;32.53;;;27.70;99.90;;;;;;5023579;28;20026;-63
2021/12/07 11:24:52;;;;;;;61.67;34.53;;;27.70;99.90;;;;;;5026843;28;20017;-64
2021/12/07 11:29:58;;;;;;;57.65;33.65;;;27.60;99.90;;;;;;5024651;28;20026;-65
2021/12/07 11:32:25;;;;;;;111.75;59.05;;;27.70;99.90;;;;;;5025176;28;20516;-64
2021/12/07 11:34:52;;;;;;;368.92;321.35;;;27.70;99.90;;;;;;5017290;28;20030;-66
2021/12/07 11:37:22;;;;;;;110.22;77.85;;;27.70;99.90;;;;;;5044970;28;20036;-65
2021/12/07 11:39:57;;;;;;;88.47;45.40;;;27.70;99.90;;;;;;5054415;28;20035;-64
2021/12/07 11:42:29;;;;;;;74.28;45.55;;;27.70;99.90;;;;;;5053839;28;20483;-64
2021/12/07 11:44:58;;;;;;;68.00;47.88;;;27.70;99.90;;;;;;5024948;28;20108;-63
2021/12/07 11:47:28;;;;;;;85.13;57.08;;;27.60;99.90;;;;;;5033547;28;20032;-64
2021/12/07 11:49:57;;;;;;;102.53;63.40;;;27.60;99.90;;;;;;5032933;28;20029;-65
2021/12/07 11:52:24;;;;;;;72.85;47.47;;;27.60;99.90;;;;;;5028472;28;20116;-65
2021/12/07 11:54:50;;;;;;;144.68;81.93;;;27.50;99.90;;;;;;5025904;28;20030;-65
2021/12/07 11:57:19;;;;;;;134.52;62.00;;;27.60;99.90;;;;;;5026496;28;20048;-64
2021/12/07 11:59:48;;;;;;;121.70;57.38;;;27.50;99.90;;;;;;5021320;28;20049;-64
2021/12/07 12:02:18;;;;;;;91.07;45.00;;;27.50;99.90;;;;;;5023999;28;20136;-64
2021/12/07 12:04:45;;;;;;;83.15;47.58;;;27.50;99.90;;;;;;5017410;28;20439;-65
2021/12/07 12:07:13;;;;;;;105.45;52.05;;;27.50;99.90;;;;;;5020730;28;20117;-64
2021/12/07 12:09:47;;;;;;;104.22;55.35;;;27.50;99.90;;;;;;5015111;28;20040;-64
2021/12/07 12:12:30;;;;;;;97.15;52.00;;;27.40;99.90;;;;;;5014659;28;20049;-64
2021/12/07 12:15:11;;;;;;;93.50;52.40;;;27.40;99.90;;;;;;5027795;28;20376;-64
2021/12/07 12:17:53;;;;;;;108.45;75.03;;;27.40;99.90;;;;;;5020386;28;20029;-64
2021/12/07 12:20:43;;;;;;;133.82;85.78;;;27.40;99.90;;;;;;5023335;28;20037;-63
2021/12/07 12:23:29;;;;;;;137.60;94.38;;;27.40;99.90;;;;;;5021067;28;20025;-64
2021/12/07 12:25:59;;;;;;;121.18;85.72;;;27.50;99.90;;;;;;5027191;28;20029;-65
2021/12/07 12:28:32;;;;;;;163.48;111.90;;;27.50;99.90;;;;;;5015750;28;20175;-64
2021/12/07 12:30:59;;;;;;;166.73;117.75;;;27.50;99.90;;;;;;5014663;28;20072;-65
2021/12/07 12:33:42;;;;;;;156.15;112.65;;;27.50;99.90;;;;;;5013888;28;20029;-64
2021/12/07 12:36:09;;;;;;;159.23;111.55;;;27.50;99.90;;;;;;5020884;28;20052;-63
2021/12/07 12:38:36;;;;;;;158.75;106.28;;;27.50;99.90;;;;;;5021928;28;20137;-64
2021/12/07 12:41:10;;;;;;;178.38;122.90;;;27.50;99.90;;;;;;5024504;28;20037;-64
2021/12/07 12:43:43;;;;;;;148.13;90.13;;;27.50;99.90;;;;;;5023873;28;20113;-64
2021/12/07 12:46:12;;;;;;;132.13;78.65;;;27.40;99.90;;;;;;5026408;28;20026;-65
2021/12/07 12:48:45;;;;;;;103.40;60.17;;;27.40;99.90;;;;;;5024068;28;20025;-64
2021/12/07 12:51:12;;;;;;;104.70;60.20;;;27.50;99.90;;;;;;5025095;28;20084;-64
2021/12/07 12:53:39;;;;;;;89.50;52.72;;;27.40;99.90;;;;;;5029094;28;20029;-63
2021/12/07 12:56:12;;;;;;;91.28;49.70;;;27.40;99.90;;;;;;5033901;28;20182;-66
2021/12/07 12:58:45;;;;;;;79.10;50.40;;;27.30;99.90;;;;;;5027309;28;20036;-67
2021/12/07 13:01:13;;;;;;;86.80;52.22;;;27.40;99.90;;;;;;5026151;28;20022;-64
2021/12/07 13:03:44;;;;;;;90.40;54.13;;;27.40;99.90;;;;;;5028797;28;20021;-65
2021/12/07 13:06:15;;;;;;;94.47;57.72;;;27.50;99.90;;;;;;5027974;28;20029;-64
2021/12/07 13:08:58;;;;;;;110.85;62.53;;;27.50;99.90;;;;;;5030910;28;20021;-65
2021/12/07 13:11:37;;;;;;;104.20;60.45;;;27.50;99.90;;;;;;5027534;28;20503;-65
2021/12/07 13:14:06;;;;;;;98.07;59.60;;;27.50;99.90;;;;;;5027343;28;20276;-64
2021/12/07 13:16:34;;;;;;;97.90;66.20;;;27.50;99.90;;;;;;5029033;28;20385;-62
2021/12/07 13:19:08;;;;;;;107.93;70.60;;;27.50;99.90;;;;;;5035777;28;20029;-64
2021/12/07 13:21:42;;;;;;;106.88;73.00;;;27.50;99.90;;;;;;5026999;28;20472;-66
2021/12/07 13:24:31;;;;;;;106.85;72.35;;;27.40;99.90;;;;;;5036903;28;20026;-65
2021/12/07 13:26:58;;;;;;;116.97;75.68;;;27.40;99.90;;;;;;5037021;28;20037;-65
2021/12/07 13:29:26;;;;;;;116.03;76.32;;;27.40;99.90;;;;;;5036699;28;20026;-66
2021/12/07 13:32:02;;;;;;;148.55;100.20;;;27.30;99.90;;;;;;5036402;28;20034;-64
2021/12/07 13:34:32;;;;;;;141.02;91.88;;;27.40;99.90;;;;;;5036405;28;20472;-63
2021/12/07 13:37:00;;;;;;;132.15;87.43;;;27.40;99.90;;;;;;5036692;28;20030;-65
2021/12/07 13:39:28;;;;;;;128.13;84.07;;;27.40;99.90;;;;;;5031687;28;20499;-65
2021/12/07 13:42:08;;;;;;;116.80;75.15;;;27.40;99.90;;;;;;5035974;28;20029;-65
2021/12/07 13:44:42;;;;;;;115.10;71.70;;;27.40;99.90;;;;;;5036326;28;20025;-64
2021/12/07 13:47:13;;;;;;;124.53;74.22;;;27.40;99.90;;;;;;5036523;28;20490;-65
2021/12/07 13:49:45;;;;;;;114.72;68.97;;;27.40;99.90;;;;;;5036353;28;20064;-64
2021/12/07 13:52:15;;;;;;;110.47;65.70;;;27.40;99.90;;;;;;5035784;28;20444;-63
2021/12/07 13:54:45;;;;;;;120.63;68.50;;;27.40;99.90;;;;;;5036195;28;20026;-65
2021/12/07 13:57:18;;;;;;;102.78;67.32;;;27.40;99.90;;;;;;5036616;28;20538;-64
2021/12/07 14:00:06;;;;;;;112.07;68.60;;;27.40;99.90;;;;;;5036220;28;20064;-66
2021/12/07 14:02:33;;;;;;;112.25;71.07;;;27.40;99.90;;;;;;5035025;28;20065;-67
2021/12/07 14:05:07;;;;;;;122.85;71.68;;;27.40;99.90;;;;;;5035771;28;20152;-65
2021/12/07 14:07:36;;;;;;;128.15;78.50;;;27.40;99.90;;;;;;5023471;28;20033;-66
2021/12/07 14:10:09;;;;;;;143.02;82.43;;;27.40;99.90;;;;;;5015337;28;20024;-66
2021/12/07 14:12:36;;;;;;;126.28;81.85;;;27.40;99.90;;;;;;5027278;28;20451;-66
2021/12/07 14:16:30;;;;;;;118.85;80.28;;;27.30;99.90;;;;;;5089195;27;20437;-65
2021/12/07 14:18:57;;;;;;;116.60;77.78;;;27.20;99.90;;;;;;5075822;28;20050;-65
2021/12/07 14:21:23;;;;;;;122.57;82.43;;;27.20;99.90;;;;;;5090055;28;20025;-65
2021/12/07 14:23:57;;;;;;;138.48;85.78;;;27.20;99.90;;;;;;5070431;28;20036;-64
2021/12/07 14:26:25;;;;;;;127.45;83.82;;;27.20;99.90;;;;;;5070945;28;20039;-65
2021/12/07 14:29:02;;;;;;;125.15;84.55;;;27.20;99.90;;;;;;5077648;28;20033;-65
2021/12/07 14:31:35;;;;;;;120.10;82.13;;;27.20;99.90;;;;;;5076277;28;20082;-65
2021/12/07 14:34:07;;;;;;;128.73;83.72;;;27.20;99.90;;;;;;5070529;28;20038;-65